General Aviation Weather

Text Reports

Enter one or more of the following location identifiers separated by a space:

Zip Code, Four-Character ICAO or Three-Character IATA airport codes.

METAR - Aviation Routine Weather Report
KDLL - Baraboo, Wisconsin
Updated at 6:55 AM GMT on September 20, 2014 (1:55 AM CDT):
METAR KDLL 200655Z AUTO 22018G23KT 10SM SCT060 BKN075 19/13 A2978 RMK AO2 LTG DSNT N AND NW T01900130
TAF - Terminal Area Forecast
KDLL - Baraboo, Wisconsin
Updated at 6:55 AM GMT on September 20, 2014 (1:55 AM CDT):
No TAF is currently available for this location.
Decoded:
No decoded TAF is available.
PIREP - Pilot Weather Report
KDLL - Baraboo, Wisconsin
Updated at 6:55 AM GMT on September 20, 2014 (1:55 AM CDT):
No PIREP is currently available for this location.
AIRMET - Airmens Meteorological Information
KDLL - Baraboo, Wisconsin
Updated at 6:55 AM GMT on September 20, 2014 (1:55 AM CDT):
No AIRMET is currently available for this location.
SIGMET - Significant Meteorological Information
KDLL - Baraboo, Wisconsin
Updated at 6:55 AM GMT on September 20, 2014 (1:55 AM CDT):
No SIGMET is currently available for this location.
NOTAM - Notice to Airmen
KDLL - Baraboo, Wisconsin
Updated at 6:55 AM GMT on September 20, 2014 (1:55 AM CDT):
No NOTAM is currently available for this location.
Forecast Area
KDLL - Baraboo, Wisconsin
Updated at 6:55 AM GMT on September 20, 2014 (1:55 AM CDT):
No NOTAM is currently available for this location.
Aviation Weather Maps